Time;durP1;ratioP1;P1;durP2;ratioP2;P2;SDS_P1;SDS_P2;PMS_P1;PMS_P2;Temp;Humidity;BMP_temperature;BMP_pressure;BME280_temperature;BME280_humidity;BME280_pressure;Samples;Min_cycle;Max_cycle;Signal;HPM_P1;HPM_P2
2020/12/17 00:01:58;;;;;;;37.63;22.98;;;;;;;1.43;95.13;100765.55;1697411;84;21408;-69
2020/12/17 00:04:26;;;;;;;42.65;20.82;;;;;;;1.43;95.31;100769.03;1729124;82;20979;-71
2020/12/17 00:06:54;;;;;;;40.80;22.60;;;;;;;1.51;95.53;100778.80;1688469;84;21545;-70
2020/12/17 00:09:22;;;;;;;42.38;22.50;;;;;;;1.62;95.69;100785.94;1690921;84;21712;-70
2020/12/17 00:11:50;;;;;;;34.45;16.77;;;;;;;1.67;95.64;100786.28;1693857;84;21133;-72
2020/12/17 00:14:18;;;;;;;48.98;26.55;;;;;;;1.68;95.29;100799.02;1657085;84;23542;-70
2020/12/17 00:16:46;;;;;;;32.80;16.65;;;;;;;1.54;95.04;100793.87;1694258;84;21615;-71
2020/12/17 00:19:14;;;;;;;39.50;19.80;;;;;;;1.55;95.29;100794.70;1694249;84;21036;-70
2020/12/17 00:21:41;;;;;;;27.00;15.23;;;;;;;1.59;95.47;100794.20;1696323;83;21023;-70
2020/12/17 00:24:09;;;;;;;29.85;16.02;;;;;;;1.63;95.52;100787.58;1696138;83;21165;-71
2020/12/17 00:26:37;;;;;;;43.15;19.40;;;;;;;1.64;95.41;100784.43;1717647;83;21256;-69
2020/12/17 00:29:05;;;;;;;36.65;19.98;;;;;;;1.61;95.34;100788.75;1709738;83;21611;-68
2020/12/17 00:31:32;;;;;;;39.90;21.00;;;;;;;1.58;95.37;100788.56;1694536;84;21579;-71
2020/12/17 00:34:00;;;;;;;43.00;24.27;;;;;;;1.54;95.36;100794.36;1699800;83;21204;-68
2020/12/17 00:36:28;;;;;;;38.30;24.02;;;;;;;1.59;95.66;100784.92;1723570;83;21154;-71
2020/12/17 00:38:55;;;;;;;29.25;16.27;;;;;;;1.70;95.91;100783.28;1722755;83;21384;-70
2020/12/17 00:41:23;;;;;;;31.57;18.17;;;;;;;1.84;95.96;100782.28;1714053;83;21602;-71
2020/12/17 00:43:51;;;;;;;28.65;15.83;;;;;;;1.87;95.58;100776.13;1694253;84;21211;-70
2020/12/17 00:46:19;;;;;;;39.85;23.67;;;;;;;1.87;95.51;100780.64;1696040;83;21129;-72
2020/12/17 00:48:50;;;;;;;39.48;21.57;;;;;;;1.85;95.34;100772.84;1694300;84;21138;-70
2020/12/17 00:51:21;;;;;;;42.08;22.35;;;;;;;1.88;95.35;100775.64;1694291;84;21704;-71
2020/12/17 00:53:49;;;;;;;28.47;15.28;;;;;;;1.88;95.28;100768.52;1695007;83;21606;-71
2020/12/17 00:56:17;;;;;;;42.30;22.52;;;;;;;1.94;95.31;100757.73;1694625;83;21535;-68
2020/12/17 00:58:44;;;;;;;37.75;21.35;;;;;;;1.86;94.95;100749.80;1718267;83;21590;-74
2020/12/17 01:01:12;;;;;;;44.08;24.52;;;;;;;1.79;94.98;100740.34;1723451;82;22224;-67
2020/12/17 01:03:40;;;;;;;40.33;21.42;;;;;;;1.80;95.15;100742.50;1718857;83;21380;-67
2020/12/17 01:06:08;;;;;;;32.73;17.20;;;;;;;1.77;95.07;100741.52;1725095;82;21693;-69
2020/12/17 01:08:35;;;;;;;37.93;21.27;;;;;;;1.77;95.11;100735.72;1724267;82;21133;-68
2020/12/17 01:11:03;;;;;;;31.77;17.73;;;;;;;1.79;95.18;100733.72;1714198;82;21994;-68
2020/12/17 01:13:31;;;;;;;30.90;17.00;;;;;;;1.82;95.28;100733.89;1726930;82;21173;-72
2020/12/17 01:16:10;;;;;;;30.88;18.42;;;;;;;1.82;95.25;100732.08;1696002;83;21300;-73
2020/12/17 01:18:37;;;;;;;43.38;22.17;;;;;;;1.76;95.23;100726.11;1715002;83;21151;-70
2020/12/17 01:21:05;;;;;;;38.25;20.70;;;;;;;1.75;95.31;100733.23;1712770;83;21136;-70
2020/12/17 01:23:33;;;;;;;41.00;23.55;;;;;;;1.69;95.34;100733.89;1764751;81;21739;-70
2020/12/17 01:26:01;;;;;;;33.08;18.75;;;;;;;1.69;95.46;100737.03;1737261;82;21231;-69
2020/12/17 01:28:28;;;;;;;26.37;13.55;;;;;;;1.70;95.62;100739.53;1745857;82;21482;-71
2020/12/17 01:30:56;;;;;;;37.95;18.87;;;;;;;1.75;95.84;100741.68;1737866;82;21107;-70
2020/12/17 01:33:24;;;;;;;36.80;20.17;;;;;;;1.77;95.87;100745.01;1760666;81;21062;-67
2020/12/17 01:35:51;;;;;;;35.48;20.08;;;;;;;1.81;95.99;100750.30;1763408;81;21684;-68
2020/12/17 01:38:19;;;;;;;41.40;22.67;;;;;;;1.86;96.01;100752.45;1764510;81;21612;-67
2020/12/17 01:40:46;;;;;;;39.10;22.22;;;;;;;1.93;95.98;100758.23;1737389;82;21212;-70
2020/12/17 01:43:14;;;;;;;44.58;22.52;;;;;;;1.97;95.89;100760.88;1735972;82;21203;-69
2020/12/17 01:45:42;;;;;;;45.12;22.73;;;;;;;2.01;95.88;100764.05;1766930;81;21104;-75
2020/12/17 01:48:11;;;;;;;30.55;17.55;;;;;;;2.06;95.78;100771.80;1767036;81;21200;-70
2020/12/17 01:50:38;;;;;;;38.33;22.62;;;;;;;2.13;95.76;100776.78;1714620;82;21198;-74
2020/12/17 01:53:06;;;;;;;37.58;21.80;;;;;;;2.16;95.72;100769.80;1692515;83;21649;-70
2020/12/17 01:55:34;;;;;;;34.20;18.45;;;;;;;2.19;95.54;100765.50;1714722;83;21207;-69
2020/12/17 01:58:03;;;;;;;38.42;19.20;;;;;;;2.18;95.30;100761.67;1714879;83;21577;-70
2020/12/17 02:00:36;;;;;;;37.67;22.05;;;;;;;2.14;95.05;100759.87;1722876;82;21598;-71
2020/12/17 02:03:05;;;;;;;33.92;20.48;;;;;;;2.12;95.01;100748.58;1744844;82;21179;-71
2020/12/17 02:05:32;;;;;;;42.48;23.55;;;;;;;2.15;94.98;100753.57;1745349;82;21577;-69
2020/12/17 02:08:00;;;;;;;34.25;18.52;;;;;;;2.21;95.25;100748.06;1745176;82;21187;-69
2020/12/17 02:10:28;;;;;;;39.90;21.25;;;;;;;2.31;95.17;100747.87;1736849;82;21185;-72
2020/12/17 02:12:56;;;;;;;43.83;22.30;;;;;;;2.34;94.86;100744.89;1724613;82;21010;-70
2020/12/17 02:15:24;;;;;;;32.60;18.07;;;;;;;2.29;94.60;100742.75;1714691;82;21183;-71
2020/12/17 02:17:52;;;;;;;40.35;23.40;;;;;;;2.28;94.54;100751.70;1715038;82;21395;-69
2020/12/17 02:20:20;;;;;;;36.98;21.85;;;;;;;2.28;94.44;100750.88;1714691;82;21014;-70
2020/12/17 02:22:47;;;;;;;35.45;20.12;;;;;;;2.28;94.37;100752.20;1733112;82;21167;-70
2020/12/17 02:25:15;;;;;;;43.42;20.70;;;;;;;2.30;94.40;100754.20;1745210;82;21227;-70
2020/12/17 02:27:43;;;;;;;24.60;13.98;;;;;;;2.30;94.38;100754.20;1745267;82;21104;-69
2020/12/17 02:30:11;;;;;;;36.38;19.40;;;;;;;2.34;94.38;100750.20;1720576;82;21310;-68
2020/12/17 02:32:39;;;;;;;29.35;18.42;;;;;;;2.30;94.12;100748.39;1725311;82;21011;-67
2020/12/17 02:35:08;;;;;;;33.85;21.42;;;;;;;2.29;94.00;100749.88;1717312;82;21174;-68
2020/12/17 02:37:36;;;;;;;37.80;20.92;;;;;;;2.27;94.06;100761.98;1724973;82;21590;-68
2020/12/17 02:40:04;;;;;;;36.98;18.67;;;;;;;2.30;94.13;100762.16;1709143;84;21161;-66
2020/12/17 02:42:32;;;;;;;38.50;19.50;;;;;;;2.37;94.35;100759.14;1712520;82;22306;-68
2020/12/17 02:45:00;;;;;;;33.90;19.20;;;;;;;2.43;94.26;100761.12;1714804;83;21227;-68
2020/12/17 02:47:28;;;;;;;36.40;21.35;;;;;;;2.49;94.16;100755.13;1727766;82;21105;-67
2020/12/17 02:49:56;;;;;;;33.90;19.67;;;;;;;2.49;93.82;100759.95;1724446;82;21011;-69
2020/12/17 02:52:23;;;;;;;39.65;22.48;;;;;;;2.43;93.50;100760.62;1715754;82;21164;-68
2020/12/17 02:54:52;;;;;;;36.08;20.02;;;;;;;2.41;93.52;100759.95;1714966;83;21396;-68
2020/12/17 02:57:20;;;;;;;39.85;21.90;;;;;;;2.45;93.60;100764.41;1725881;82;21159;-68
2020/12/17 02:59:49;;;;;;;35.38;20.77;;;;;;;2.50;93.64;100767.39;1765630;81;21133;-69
2020/12/17 03:02:17;;;;;;;33.88;21.20;;;;;;;2.57;93.64;100763.06;1728756;82;21530;-69
2020/12/17 03:04:44;;;;;;;38.15;19.42;;;;;;;2.63;93.62;100772.50;1713715;82;21566;-68
2020/12/17 03:07:12;;;;;;;22.90;13.53;;;;;;;2.68;93.45;100768.01;1722400;82;21219;-68
2020/12/17 03:09:41;;;;;;;29.80;17.95;;;;;;;2.71;93.26;100768.98;1736245;82;21613;-69
2020/12/17 03:12:10;;;;;;;33.00;20.27;;;;;;;2.69;92.93;100771.46;1748452;81;21154;-67
2020/12/17 03:14:37;;;;;;;29.92;17.85;;;;;;;2.68;92.89;100769.33;1730456;81;21169;-68
2020/12/17 03:17:06;;;;;;;28.92;17.07;;;;;;;2.71;92.87;100770.80;1716117;82;21619;-68
2020/12/17 03:19:33;;;;;;;31.70;18.65;;;;;;;2.75;92.77;100781.41;1734895;81;21180;-67
2020/12/17 03:22:01;;;;;;;32.48;19.65;;;;;;;2.78;92.69;100775.77;1745131;81;20975;-67
2020/12/17 03:24:30;;;;;;;30.97;17.52;;;;;;;2.79;92.56;100780.05;1761432;81;21113;-67
2020/12/17 03:26:59;;;;;;;34.33;19.30;;;;;;;2.85;92.53;100787.34;1757199;81;21187;-72
2020/12/17 03:29:27;;;;;;;30.27;18.30;;;;;;;2.83;92.24;100782.19;1685641;85;21582;-66
2020/12/17 03:31:54;;;;;;;30.88;20.30;;;;;;;2.84;92.15;100790.99;1732292;81;22366;-68
2020/12/17 03:34:22;;;;;;;35.58;18.73;;;;;;;2.79;91.86;100784.88;1735747;82;21193;-68
2020/12/17 03:36:49;;;;;;;23.50;15.98;;;;;;;2.78;92.07;100784.53;1736379;81;21531;-68
2020/12/17 03:39:18;;;;;;;28.73;17.75;;;;;;;2.80;92.06;100793.67;1737914;81;21046;-68
2020/12/17 03:41:45;;;;;;;29.30;19.25;;;;;;;2.76;92.01;100794.52;1741638;81;21630;-67
2020/12/17 03:44:13;;;;;;;33.40;22.13;;;;;;;2.79;92.16;100794.17;1761259;81;22355;-69
2020/12/17 03:46:41;;;;;;;28.12;17.10;;;;;;;2.81;92.03;100800.16;1761192;81;21173;-69
2020/12/17 03:49:08;;;;;;;33.40;22.70;;;;;;;2.84;92.02;100797.63;1737133;81;21156;-68
2020/12/17 03:51:37;;;;;;;31.93;21.10;;;;;;;2.82;91.80;100800.48;1761365;81;21538;-68
2020/12/17 03:54:05;;;;;;;24.67;15.35;;;;;;;2.83;91.85;100804.77;1735720;82;21226;-68
2020/12/17 03:56:33;;;;;;;27.30;18.77;;;;;;;2.88;91.95;100805.09;1736290;81;21228;-68
2020/12/17 03:59:00;;;;;;;27.45;15.70;;;;;;;2.93;91.88;100804.56;1751090;81;21643;-68
2020/12/17 04:01:28;;;;;;;25.77;16.05;;;;;;;2.91;91.57;100801.27;1747736;81;21578;-68
2020/12/17 04:03:55;;;;;;;27.82;17.20;;;;;;;2.87;91.49;100802.13;1761213;81;22067;-67
2020/12/17 04:06:23;;;;;;;28.55;18.02;;;;;;;2.85;91.53;100806.77;1760967;81;21571;-68
2020/12/17 04:08:52;;;;;;;26.80;16.95;;;;;;;2.83;91.56;100802.12;1761721;81;21206;-68
2020/12/17 04:11:20;;;;;;;20.68;13.32;;;;;;;2.82;91.47;100801.81;1762517;81;20971;-66
2020/12/17 04:13:47;;;;;;;19.55;12.23;;;;;;;2.78;91.47;100810.30;1744795;81;21035;-67
2020/12/17 04:16:15;;;;;;;31.30;17.98;;;;;;;2.75;91.53;100803.48;1722766;81;22293;-66
2020/12/17 04:18:42;;;;;;;30.30;18.98;;;;;;;2.70;91.53;100805.83;1715717;83;21643;-67
2020/12/17 04:21:10;;;;;;;31.57;16.32;;;;;;;2.70;91.75;100805.83;1715067;83;21277;-67
2020/12/17 04:23:38;;;;;;;27.60;17.87;;;;;;;2.73;91.96;100811.31;1710482;83;21666;-67
2020/12/17 04:26:13;;;;;;;23.80;14.45;;;;;;;2.77;92.02;100808.64;1694059;84;21552;-66
2020/12/17 04:28:40;;;;;;;30.32;19.27;;;;;;;2.81;92.05;100809.95;1707580;84;21193;-68
2020/12/17 04:31:08;;;;;;;21.80;14.35;;;;;;;2.83;92.00;100810.61;1686546;84;21657;-69
2020/12/17 04:33:35;;;;;;;28.25;17.27;;;;;;;2.87;91.95;100810.59;1703322;84;21619;-66
2020/12/17 04:36:04;;;;;;;25.52;16.90;;;;;;;2.86;91.84;100806.27;1708317;83;21030;-67
2020/12/17 04:38:32;;;;;;;32.20;17.62;;;;;;;2.90;91.94;100805.76;1696300;84;21218;-66
2020/12/17 04:41:05;;;;;;;28.50;17.40;;;;;;;2.97;91.96;100804.58;1683393;85;21558;-67
2020/12/17 04:43:33;;;;;;;25.45;16.40;;;;;;;3.03;91.91;100811.33;1683507;85;21172;-67
2020/12/17 04:46:04;;;;;;;30.15;17.57;;;;;;;3.07;91.68;100803.83;1685503;83;23677;-68
2020/12/17 04:48:32;;;;;;;26.10;16.02;;;;;;;3.05;91.46;100812.00;1695513;84;21063;-69
2020/12/17 04:51:00;;;;;;;25.97;13.55;;;;;;;3.03;91.37;100808.67;1683060;84;21953;-66
2020/12/17 04:53:28;;;;;;;25.85;16.57;;;;;;;3.04;91.31;100809.51;1685007;84;21652;-68
2020/12/17 04:55:57;;;;;;;31.37;19.07;;;;;;;2.99;91.23;100804.71;1700246;84;21031;-69
2020/12/17 04:58:25;;;;;;;29.32;18.45;;;;;;;3.02;91.36;100815.52;1688425;83;22401;-68
2020/12/17 05:00:54;;;;;;;29.67;17.80;;;;;;;3.07;91.46;100811.31;1705160;84;21129;-69
2020/12/17 05:03:22;;;;;;;27.10;16.95;;;;;;;3.12;91.29;100809.45;1702816;84;21649;-68
2020/12/17 05:05:53;;;;;;;23.65;14.55;;;;;;;3.16;91.24;100811.29;1706480;84;21634;-69
2020/12/17 05:08:21;;;;;;;34.73;22.50;;;;;;;3.20;91.10;100810.77;1631010;88;21632;-68
2020/12/17 05:10:50;;;;;;;26.42;16.37;;;;;;;3.17;90.80;100820.39;1648344;87;21240;-68
2020/12/17 05:13:18;;;;;;;22.67;15.93;;;;;;;3.14;90.65;100816.77;1643089;87;21240;-70
2020/12/17 05:15:45;;;;;;;19.75;15.23;;;;;;;3.08;90.49;100816.13;1668674;84;21193;-69
2020/12/17 05:18:13;;;;;;;26.12;17.02;;;;;;;3.03;90.56;100822.45;1657701;86;21186;-69
2020/12/17 05:20:41;;;;;;;28.27;18.25;;;;;;;3.04;90.77;100816.98;1684952;85;21649;-68
2020/12/17 05:23:08;;;;;;;28.98;18.70;;;;;;;3.08;90.78;100821.44;1683973;85;21395;-67
2020/12/17 05:25:37;;;;;;;27.13;18.98;;;;;;;3.14;90.83;100826.07;1704492;84;21165;-67
2020/12/17 05:28:05;;;;;;;24.67;16.05;;;;;;;3.20;90.75;100816.58;1673825;85;21050;-69
2020/12/17 05:30:35;;;;;;;22.87;14.90;;;;;;;3.23;90.62;100816.22;1670421;85;21073;-66
2020/12/17 05:33:03;;;;;;;27.58;16.73;;;;;;;3.22;90.29;100821.20;1686309;85;21139;-75
2020/12/17 05:35:35;;;;;;;18.55;12.47;;;;;;;3.15;90.23;100828.23;1686401;85;21228;-68
2020/12/17 05:38:06;;;;;;;28.05;17.85;;;;;;;3.11;90.19;100825.59;1686417;85;21636;-67
2020/12/17 05:40:41;;;;;;;26.57;17.82;;;;;;;3.06;90.09;100828.78;1657457;86;21175;-68
2020/12/17 05:43:10;;;;;;;31.07;17.17;;;;;;;3.03;90.20;100833.92;1657824;86;21037;-69
2020/12/17 05:45:38;;;;;;;26.27;16.70;;;;;;;3.06;90.25;100838.08;1657215;86;21171;-66
2020/12/17 05:48:17;;;;;;;26.45;16.20;;;;;;;3.13;90.36;100847.00;1701157;84;21216;-68
2020/12/17 05:50:57;;;;;;;21.30;15.20;;;;;;;3.15;90.25;100842.36;1674584;85;21660;-69
2020/12/17 05:53:29;;;;;;;19.45;13.53;;;;;;;3.20;90.20;100840.50;1657200;86;21214;-68
2020/12/17 05:56:03;;;;;;;18.43;13.17;;;;;;;3.21;89.76;100855.45;1701451;84;21271;-68
2020/12/17 05:58:40;;;;;;;;;;;;;;;3.15;89.51;100847.67;1659628;86;21174;-67
2020/12/17 06:01:16;;;;;;;30.60;18.20;;;;;;;3.13;89.47;100850.16;1686306;85;22217;-68
2020/12/17 06:03:44;;;;;;;22.90;14.78;;;;;;;3.12;89.41;100854.64;1701352;84;21150;-66
2020/12/17 06:06:13;;;;;;;23.40;14.60;;;;;;;3.06;89.20;100849.55;1647098;87;21167;-68
2020/12/17 06:08:41;;;;;;;24.37;16.23;;;;;;;3.00;89.15;100846.73;1630315;88;21627;-67
2020/12/17 06:11:10;;;;;;;26.65;15.95;;;;;;;3.00;89.34;100846.73;1673105;85;21245;-69
2020/12/17 06:13:40;;;;;;;20.92;14.18;;;;;;;3.02;89.23;100850.86;1630340;88;21596;-68
2020/12/17 06:16:11;;;;;;;25.65;16.35;;;;;;;3.03;89.10;100851.70;1704863;83;21216;-68
2020/12/17 06:18:57;;;;;;;24.23;14.18;;;;;;;3.02;89.02;100856.70;1715327;83;21610;-67
2020/12/17 06:21:25;;;;;;;34.05;19.55;;;;;;;3.00;88.92;100853.38;1715277;83;21204;-67
2020/12/17 06:24:00;;;;;;;26.03;15.30;;;;;;;3.02;89.05;100856.70;1716433;83;21155;-67
2020/12/17 06:26:27;;;;;;;27.17;18.73;;;;;;;3.05;88.95;100859.84;1715679;83;21197;-67
2020/12/17 06:28:56;;;;;;;31.57;18.85;;;;;;;3.06;88.87;100860.17;1715503;83;21157;-66
2020/12/17 06:31:27;;;;;;;28.20;20.17;;;;;;;3.07;88.80;100864.96;1685898;85;21160;-66
2020/12/17 06:33:58;;;;;;;28.35;17.92;;;;;;;3.13;88.87;100866.11;1686580;85;21187;-67
2020/12/17 06:36:43;;;;;;;22.62;14.98;;;;;;;3.23;88.95;100860.08;1686498;85;21216;-70
2020/12/17 06:39:11;;;;;;;21.77;15.38;;;;;;;3.34;88.83;100865.85;1685757;85;21471;-71
2020/12/17 06:41:39;;;;;;;30.25;17.67;;;;;;;3.39;88.28;100870.16;1712976;83;21177;-67
2020/12/17 06:44:30;;;;;;;39.18;27.48;;;;;;;3.44;88.10;100868.30;1715219;83;21212;-66
2020/12/17 06:47:01;;;;;;;26.45;15.50;;;;;;;3.48;87.80;100870.43;1715263;83;21570;-68
2020/12/17 06:49:30;;;;;;;27.87;16.02;;;;;;;3.46;87.30;100868.44;1715321;83;21165;-68
2020/12/17 06:52:02;;;;;;;25.43;15.15;;;;;;;3.48;87.24;100868.27;1715342;83;21355;-68
2020/12/17 06:54:41;;;;;;;25.82;17.70;;;;;;;3.47;87.03;100874.58;1715309;83;21582;-69
2020/12/17 06:57:16;;;;;;;29.80;18.65;;;;;;;3.45;86.92;100869.95;1715349;83;21606;-68
2020/12/17 07:00:07;;;;;;;25.08;16.48;;;;;;;3.49;86.87;100876.58;1715262;82;21669;-66
2020/12/17 07:02:42;;;;;;;29.35;16.95;;;;;;;3.53;86.69;100883.70;1715157;83;21173;-68
2020/12/17 07:05:32;;;;;;;23.07;12.95;;;;;;;3.58;86.41;100892.81;1714985;83;21461;-68
2020/12/17 07:08:00;;;;;;;20.60;14.15;;;;;;;3.63;86.15;100899.77;1686754;83;21188;-67
2020/12/17 07:10:29;;;;;;;20.62;13.75;;;;;;;3.58;85.46;100900.80;1715003;83;21726;-67
2020/12/17 07:12:57;;;;;;;29.12;18.85;;;;;;;3.47;85.23;100898.52;1714884;83;21625;-67
2020/12/17 07:15:34;;;;;;;22.13;14.33;;;;;;;3.39;85.24;100902.55;1714738;83;21244;-68
2020/12/17 07:18:24;;;;;;;27.37;16.70;;;;;;;3.37;85.29;100904.55;1729522;82;21164;-69
2020/12/17 07:20:55;;;;;;;26.05;15.23;;;;;;;3.39;85.45;100910.53;1740418;81;21655;-67
2020/12/17 07:23:23;;;;;;;27.07;17.27;;;;;;;3.44;85.37;100915.66;1726618;83;21563;-66
2020/12/17 07:25:52;;;;;;;30.23;17.73;;;;;;;3.46;85.34;100918.13;1727297;82;21178;-68
2020/12/17 07:28:25;;;;;;;20.43;12.47;;;;;;;3.50;85.48;100919.47;1734037;81;21588;-68
2020/12/17 07:30:59;;;;;;;26.07;14.93;;;;;;;3.53;85.35;100919.61;1728332;81;21398;-70
2020/12/17 07:33:43;;;;;;;23.90;13.65;;;;;;;3.48;84.91;100921.45;1705677;84;21140;-66
2020/12/17 07:36:11;;;;;;;27.95;18.15;;;;;;;3.43;84.87;100927.80;1678351;84;21605;-68
2020/12/17 07:38:39;;;;;;;26.23;16.35;;;;;;;3.34;85.03;100924.84;1694623;83;20987;-68
2020/12/17 07:41:23;;;;;;;47.13;32.50;;;;;;;3.30;85.22;100928.86;1743645;82;21152;-67
2020/12/17 07:43:51;;;;;;;29.05;18.42;;;;;;;3.28;85.68;100929.02;1744553;82;21534;-66
2020/12/17 07:46:41;;;;;;;23.02;15.23;;;;;;;3.37;85.92;100929.31;1765591;80;21216;-67
2020/12/17 07:49:21;;;;;;;28.80;16.02;;;;;;;3.45;85.85;100926.61;1729629;82;21117;-66
2020/12/17 07:51:48;;;;;;;26.90;16.80;;;;;;;3.50;85.75;100922.13;1712556;83;21630;-66
2020/12/17 07:54:20;;;;;;;23.45;15.10;;;;;;;3.53;85.75;100923.59;1714156;83;21177;-65
2020/12/17 07:56:49;;;;;;;18.82;12.05;;;;;;;3.53;85.58;100920.94;1713691;83;21167;-67
2020/12/17 07:59:17;;;;;;;26.45;16.30;;;;;;;3.49;85.33;100923.95;1729260;82;21580;-68
2020/12/17 08:01:44;;;;;;;29.40;16.77;;;;;;;3.44;85.02;100923.64;1736356;82;21585;-67
2020/12/17 08:04:12;;;;;;;30.77;19.32;;;;;;;3.41;85.05;100929.79;1765712;81;21164;-67
2020/12/17 08:06:40;;;;;;;27.93;15.45;;;;;;;3.41;85.34;100923.97;1736298;82;21155;-68
2020/12/17 08:09:08;;;;;;;21.68;15.38;;;;;;;3.46;85.49;100927.44;1752585;81;21188;-68
2020/12/17 08:11:38;;;;;;;20.82;13.80;;;;;;;3.56;85.38;100925.90;1737555;81;21643;-70
2020/12/17 08:14:07;;;;;;;25.52;15.43;;;;;;;3.57;85.07;100925.73;1744799;82;21129;-68
2020/12/17 08:16:35;;;;;;;32.58;20.65;;;;;;;3.54;84.87;100927.42;1730670;82;21252;-70
2020/12/17 08:19:03;;;;;;;32.28;22.07;;;;;;;3.47;84.83;100924.61;1732742;82;21217;-68
2020/12/17 08:21:31;;;;;;;26.00;17.17;;;;;;;3.45;84.94;100929.27;1727383;82;21393;-68
2020/12/17 08:23:58;;;;;;;43.85;27.48;;;;;;;3.44;84.99;100931.63;1682906;85;21551;-66
2020/12/17 08:26:28;;;;;;;30.23;20.70;;;;;;;3.43;85.06;100935.28;1685123;84;21666;-70
2020/12/17 08:28:56;;;;;;;26.90;18.10;;;;;;;3.45;85.26;100927.94;1761343;81;21548;-67
2020/12/17 08:31:27;;;;;;;32.83;16.85;;;;;;;3.50;85.20;100929.58;1713533;81;21459;-68
2020/12/17 08:34:00;;;;;;;34.60;22.60;;;;;;;3.51;84.92;100926.42;1766429;81;21410;-66
2020/12/17 08:36:34;;;;;;;31.37;19.50;;;;;;;3.56;84.98;100925.40;1767269;81;21223;-70
2020/12/17 08:39:09;;;;;;;34.65;21.50;;;;;;;3.57;84.79;100922.24;1766124;81;21037;-67
2020/12/17 08:41:43;;;;;;;34.80;19.20;;;;;;;3.56;84.96;100929.88;1714733;81;21184;-66
2020/12/17 08:44:11;;;;;;;29.10;17.15;;;;;;;3.52;85.44;100932.08;1766284;81;21573;-70
2020/12/17 08:46:49;;;;;;;33.98;17.27;;;;;;;3.48;85.22;100934.26;1761521;80;21716;-68
2020/12/17 08:49:17;;;;;;;34.43;20.25;;;;;;;3.48;85.22;100934.26;1761219;81;21019;-70
2020/12/17 08:51:46;;;;;;;37.23;22.37;;;;;;;3.53;85.35;100942.21;1755909;81;21625;-68
2020/12/17 08:54:31;;;;;;;32.40;20.48;;;;;;;3.57;85.33;100945.68;1748037;81;21130;-67
2020/12/17 08:57:05;;;;;;;23.50;15.45;;;;;;;3.62;85.29;100945.98;1761165;81;21587;-69
2020/12/17 08:59:32;;;;;;;;;;;;;;;3.64;85.31;100945.83;1763281;81;21331;-68
2020/12/17 09:02:00;;;;;;;30.02;16.82;;;;;;;3.66;85.22;100946.46;1765067;81;20215;-68
2020/12/17 09:04:28;;;;;;;26.65;16.87;;;;;;;3.64;85.33;100945.33;1766157;81;21049;-70
2020/12/17 09:07:02;;;;;;;26.02;16.60;;;;;;;3.66;85.29;100947.30;1766136;81;21124;-71
2020/12/17 09:09:31;;;;;;;30.45;18.37;;;;;;;3.69;84.88;100953.62;1766343;81;21152;-68
2020/12/17 09:12:01;;;;;;;32.42;20.10;;;;;;;3.66;84.24;100952.62;1732007;81;22279;-67
2020/12/17 09:14:30;;;;;;;30.43;18.37;;;;;;;3.62;84.18;100948.65;1730220;83;21148;-69
2020/12/17 09:17:11;;;;;;;26.35;16.02;;;;;;;3.66;84.33;100948.63;1742652;81;21136;-69
2020/12/17 09:19:39;;;;;;;33.40;21.35;;;;;;;3.70;84.16;100945.94;1740276;81;21198;-69
2020/12/17 09:22:06;;;;;;;31.35;22.40;;;;;;;3.74;84.19;100948.58;1752762;81;21163;-69
2020/12/17 09:24:40;;;;;;;29.18;17.23;;;;;;;3.80;84.14;100946.55;1733666;82;21217;-68
2020/12/17 09:27:28;;;;;;;29.07;17.98;;;;;;;3.86;83.93;100950.35;1733597;82;21197;-70
2020/12/17 09:30:19;;;;;;;27.27;17.23;;;;;;;3.84;83.84;100949.19;1755421;81;21128;-68
2020/12/17 09:32:56;;;;;;;36.42;23.83;;;;;;;3.83;83.65;100948.05;1733065;82;21605;-69
2020/12/17 09:35:35;;;;;;;39.10;24.87;;;;;;;3.76;83.62;100948.41;1733383;82;21180;-67
2020/12/17 09:38:09;;;;;;;35.73;20.80;;;;;;;3.78;83.81;100951.23;1733553;82;22232;-68
2020/12/17 09:40:37;;;;;;;30.00;17.35;;;;;;;3.83;83.77;100940.90;1706752;82;21658;-67
2020/12/17 09:43:08;;;;;;;28.50;18.27;;;;;;;3.92;83.67;100944.33;1705791;84;21606;-66
2020/12/17 09:45:40;;;;;;;29.95;18.42;;;;;;;3.98;83.30;100940.94;1726310;82;21160;-68
2020/12/17 09:48:23;;;;;;;29.45;19.40;;;;;;;3.98;83.30;100940.94;1733111;82;21605;-68
2020/12/17 09:51:04;;;;;;;33.08;21.15;;;;;;;4.00;83.18;100939.45;1720390;82;21376;-67
2020/12/17 09:53:40;;;;;;;39.90;23.30;;;;;;;4.00;82.92;100935.45;1705578;84;21483;-68
2020/12/17 09:56:12;;;;;;;21.45;13.53;;;;;;;4.00;82.92;100935.45;1708275;82;21033;-69
2020/12/17 09:58:44;;;;;;;31.90;21.67;;;;;;;4.01;82.96;100936.62;1705915;84;21191;-66
2020/12/17 10:01:13;;;;;;;38.33;24.53;;;;;;;3.99;82.63;100935.95;1706004;84;21863;-67
2020/12/17 10:03:40;;;;;;;33.63;20.57;;;;;;;3.97;82.76;100934.48;1708035;82;22267;-68
2020/12/17 10:06:08;;;;;;;39.63;23.62;;;;;;;4.00;82.97;100932.30;1731000;82;21609;-67
2020/12/17 10:08:35;;;;;;;35.52;23.32;;;;;;;4.01;83.04;100920.65;1733400;82;21585;-67
2020/12/17 10:11:06;;;;;;;31.75;20.77;;;;;;;4.17;82.87;100925.03;1733379;82;21208;-67
2020/12/17 10:13:35;;;;;;;30.65;20.02;;;;;;;4.22;82.33;100931.98;1733441;82;21614;-68
2020/12/17 10:16:03;;;;;;;29.12;17.57;;;;;;;4.21;82.14;100924.50;1712577;82;21436;-67
2020/12/17 10:18:31;;;;;;;33.70;22.32;;;;;;;4.21;81.74;100926.33;1717624;82;21193;-68
2020/12/17 10:20:59;;;;;;;25.10;15.93;;;;;;;4.17;81.74;100925.83;1714720;83;21219;-67
2020/12/17 10:23:26;;;;;;;29.42;18.05;;;;;;;4.13;81.50;100928.53;1714629;83;21964;-67
2020/12/17 10:25:58;;;;;;;31.70;22.25;;;;;;;4.03;81.50;100923.14;1715090;82;21243;-67
2020/12/17 10:28:25;;;;;;;33.55;21.65;;;;;;;3.99;81.96;100926.64;1696888;84;23653;-66
2020/12/17 10:30:54;;;;;;;34.55;21.73;;;;;;;4.04;82.21;100920.78;1684810;83;21200;-67
2020/12/17 10:33:22;;;;;;;34.80;22.35;;;;;;;4.06;81.92;100926.27;1714700;83;21576;-67
2020/12/17 10:35:50;;;;;;;36.25;22.07;;;;;;;4.03;82.02;100921.28;1684562;85;21162;-67
2020/12/17 10:38:18;;;;;;;32.93;21.45;;;;;;;4.06;82.08;100930.77;1714877;83;21149;-71
2020/12/17 10:40:45;;;;;;;30.25;19.70;;;;;;;4.11;82.21;100935.05;1690100;83;21683;-67
2020/12/17 10:43:13;;;;;;;30.12;18.55;;;;;;;4.09;82.03;100927.73;1734859;82;21022;-68
2020/12/17 10:45:41;;;;;;;33.33;19.98;;;;;;;4.09;81.93;100933.06;1716088;82;21676;-67
2020/12/17 10:48:11;;;;;;;36.17;20.85;;;;;;;4.09;81.79;100931.23;1715703;82;21003;-68
2020/12/17 10:50:39;;;;;;;33.80;24.40;;;;;;;4.08;81.73;100936.22;1707692;84;21137;-68
2020/12/17 10:53:06;;;;;;;32.38;20.02;;;;;;;4.11;81.91;100939.88;1707366;84;21617;-67
2020/12/17 10:55:34;;;;;;;36.48;21.95;;;;;;;4.12;81.83;100936.72;1707229;84;21619;-67
2020/12/17 10:58:02;;;;;;;34.25;20.97;;;;;;;4.02;82.11;100936.95;1721257;82;21112;-70
2020/12/17 11:00:30;;;;;;;32.45;19.60;;;;;;;3.98;82.29;100935.63;1765565;81;21502;-70
2020/12/17 11:02:57;;;;;;;32.53;21.00;;;;;;;3.97;82.60;100933.98;1736170;82;21053;-68
2020/12/17 11:05:25;;;;;;;26.10;18.80;;;;;;;3.97;82.73;100933.98;1744898;81;21379;-71
2020/12/17 11:07:52;;;;;;;31.93;20.62;;;;;;;3.99;82.84;100937.28;1722449;82;21177;-70
2020/12/17 11:10:21;;;;;;;34.45;24.77;;;;;;;4.00;82.82;100942.11;1714416;83;21587;-70
2020/12/17 11:12:49;;;;;;;30.17;19.60;;;;;;;4.00;82.84;100936.78;1714654;83;21586;-69
2020/12/17 11:15:18;;;;;;;32.17;21.75;;;;;;;4.06;83.10;100940.08;1715092;82;21200;-72
2020/12/17 11:17:46;;;;;;;32.80;21.70;;;;;;;4.14;83.16;100938.68;1703112;82;21178;-69
2020/12/17 11:20:16;;;;;;;33.98;21.17;;;;;;;4.16;83.05;100935.36;1707563;82;21152;-67
2020/12/17 11:22:45;;;;;;;28.42;18.73;;;;;;;4.20;83.07;100940.14;1713479;83;21115;-71
2020/12/17 11:25:13;;;;;;;31.00;21.25;;;;;;;4.20;82.64;100940.64;1713857;83;21157;-68
2020/12/17 11:27:40;;;;;;;36.60;22.77;;;;;;;4.13;82.59;100941.02;1713560;83;21563;-69
2020/12/17 11:30:08;;;;;;;31.20;19.60;;;;;;;4.12;82.77;100938.88;1713688;83;23535;-66